Time;durP1;ratioP1;P1;durP2;ratioP2;P2;SDS_P1;SDS_P2;PMS_P1;PMS_P2;Temp;Humidity;BMP_temperature;BMP_pressure;BME280_temperature;BME280_humidity;BME280_pressure;Samples;Min_cycle;Max_cycle;Signal;HPM_P1;HPM_P2
2022/10/06 00:02:24;;;;;;;;;;;;;;;21.08;39.25;102106.41;104490;1310;62028;-85
2022/10/06 00:04:50;;;;;;;;;;;;;;;21.08;39.26;102104.27;104422;1311;62120;-84
2022/10/06 00:07:25;;;;;;;;;;;;;;;21.08;39.61;102101.23;104356;1311;62211;-83
2022/10/06 00:09:50;;;;;;;;;;;;;;;21.08;39.23;102098.91;104411;1311;62119;-84
2022/10/06 00:12:16;;;;;;;;;;;;;;;21.08;39.17;102099.80;104366;1311;62086;-84
2022/10/06 00:14:45;;;;;;;;;;;;;;;21.07;39.23;102100.35;104416;1311;74113;-83
2022/10/06 00:17:11;;;;;;;;;;;;;;;21.07;39.39;102094.27;104412;1311;62746;-84
2022/10/06 00:19:36;;;;;;;;;;;;;;;21.07;39.31;102093.73;104412;1311;62076;-83
2022/10/06 00:22:02;;;;;;;;;;;;;;;21.07;39.28;102086.23;104382;1311;62137;-85
2022/10/06 00:24:28;;;;;;;;;;;;;;;21.06;39.38;102082.67;104448;1311;62068;-82
2022/10/06 00:26:54;;;;;;;;;;;;;;;21.06;39.26;102081.42;104421;1311;61963;-85
2022/10/06 00:29:20;;;;;;;;;;;;;;;21.06;39.19;102079.81;104519;1310;62074;-85
2022/10/06 00:31:45;;;;;;;;;;;;;;;21.06;39.33;102079.84;104419;1308;62121;-84
2022/10/06 00:34:11;;;;;;;;;;;;;;;21.06;39.27;102079.30;104630;1308;62062;-87
2022/10/06 00:36:37;;;;;;;;;;;;;;;21.06;39.15;102080.04;104528;1309;62240;-83
2022/10/06 00:39:03;;;;;;;;;;;;;;;21.06;39.24;102076.10;104453;1309;62374;-85
2022/10/06 00:41:38;;;;;;;;;;;;;;;21.05;39.25;102074.86;104489;1309;62174;-88
2022/10/06 00:44:03;;;;;;;;;;;;;;;21.05;39.10;102080.61;104533;1308;62172;-86
2022/10/06 00:46:34;;;;;;;;;;;;;;;21.05;39.18;102079.34;104650;1307;62100;-84
2022/10/06 00:49:07;;;;;;;;;;;;;;;21.05;39.23;102075.95;104529;1309;75495;-85
2022/10/06 00:51:33;;;;;;;;;;;;;;;21.05;39.14;102078.28;104632;1309;62206;-84
2022/10/06 00:53:59;;;;;;;;;;;;;;;21.05;39.22;102070.79;104556;1309;62253;-85
2022/10/06 00:56:25;;;;;;;;;;;;;;;21.04;39.12;102067.04;104530;1309;62121;-82
2022/10/06 00:58:51;;;;;;;;;;;;;;;21.04;39.26;102066.15;104537;1309;62010;-85
2022/10/06 01:01:16;;;;;;;;;;;;;;;21.04;39.01;102062.77;104552;1309;62085;-84
2022/10/06 01:03:46;;;;;;;;;;;;;;;21.04;39.29;102057.73;104514;1309;62198;-83
2022/10/06 01:06:13;;;;;;;;;;;;;;;21.04;39.22;102049.34;104551;1309;74133;-84
2022/10/06 01:08:38;;;;;;;;;;;;;;;21.04;39.30;102047.03;104588;1309;62254;-84
2022/10/06 01:11:14;;;;;;;;;;;;;;;21.04;39.07;102052.21;104652;1308;62074;-84
2022/10/06 01:13:42;;;;;;;;;;;;;;;21.04;39.23;102051.67;104474;1311;62089;-81
2022/10/06 01:16:11;;;;;;;;;;;;;;;21.03;39.06;102051.33;104659;1309;72656;-83
2022/10/06 01:18:36;;;;;;;;;;;;;;;21.03;39.04;102049.55;104678;1308;75745;-84
2022/10/06 01:21:04;;;;;;;;;;;;;;;21.04;39.04;102051.52;104854;1309;62075;-83
2022/10/06 01:23:34;;;;;;;;;;;;;;;21.03;39.09;102049.38;104652;1309;62089;-83
2022/10/06 01:26:03;;;;;;;;;;;;;;;21.04;39.15;102047.04;104678;1309;72687;-82
2022/10/06 01:28:29;;;;;;;;;;;;;;;21.04;39.05;102045.06;104488;1308;75510;-83
2022/10/06 01:31:00;;;;;;;;;;;;;;;21.03;39.01;102042.92;104522;1309;62111;-87
2022/10/06 01:33:25;;;;;;;;;;;;;;;21.04;39.02;102042.91;104620;1307;61993;-84
2022/10/06 01:35:51;;;;;;;;;;;;;;;21.04;38.96;102044.53;104477;1309;62963;-83
2022/10/06 01:38:20;;;;;;;;;;;;;;;21.03;39.08;102040.44;104549;1309;62203;-84
2022/10/06 01:40:50;;;;;;;;;;;;;;;21.03;39.00;102034.16;104549;1309;62006;-85
2022/10/06 01:43:16;;;;;;;;;;;;;;;21.03;39.18;102031.50;104539;1309;62104;-83
2022/10/06 01:45:42;;;;;;;;;;;;;;;21.02;39.04;102033.48;104534;1309;62200;-87
2022/10/06 01:48:11;;;;;;;;;;;;;;;21.02;39.06;102039.23;104516;1309;75428;-86
2022/10/06 01:50:40;;;;;;;;;;;;;;;21.02;38.92;102039.05;104555;1309;62079;-81
2022/10/06 01:53:07;;;;;;;;;;;;;;;21.02;39.04;102041.02;104660;1309;61986;-83
2022/10/06 01:55:38;;;;;;;;;;;;;;;21.02;39.05;102042.63;104521;1309;72732;-85
2022/10/06 01:58:04;;;;;;;;;;;;;;;21.02;39.10;102043.02;104454;1309;75578;-85
2022/10/06 02:00:35;;;;;;;;;;;;;;;21.02;39.05;102043.36;104527;1309;62107;-84
2022/10/06 02:03:04;;;;;;;;;;;;;;;21.02;39.13;102041.77;104486;1309;61951;-86
2022/10/06 02:05:31;;;;;;;;;;;;;;;21.02;38.96;102041.96;104550;1309;73187;-85
2022/10/06 02:07:57;;;;;;;;;;;;;;;21.01;38.95;102042.31;104543;1308;76552;-84
2022/10/06 02:10:25;;;;;;;;;;;;;;;21.01;38.98;102039.64;104505;1309;62254;-83
2022/10/06 02:12:51;;;;;;;;;;;;;;;21.02;38.92;102039.46;104553;1308;62540;-83
2022/10/06 02:15:19;;;;;;;;;;;;;;;21.01;39.04;102038.77;104475;1309;62143;-83
2022/10/06 02:17:51;;;;;;;;;;;;;;;21.01;38.96;102040.36;104618;1309;76823;-88
2022/10/06 02:20:17;;;;;;;;;;;;;;;21.00;39.09;102036.46;104648;1309;62226;-84
2022/10/06 02:22:43;;;;;;;;;;;;;;;21.00;38.96;102040.39;104553;1309;62084;-85
2022/10/06 02:25:11;;;;;;;;;;;;;;;21.00;38.98;102042.38;104649;1308;62116;-82
2022/10/06 02:27:37;;;;;;;;;;;;;;;21.00;38.97;102040.96;104498;1309;76567;-84
2022/10/06 02:30:13;;;;;;;;;;;;;;;21.00;38.94;102041.48;104480;1308;62055;-86
2022/10/06 02:32:39;;;;;;;;;;;;;;;21.00;39.06;102040.05;104632;1309;65075;-87
2022/10/06 02:35:13;;;;;;;;;;;;;;;21.00;38.95;102040.26;104458;1309;62177;-82
2022/10/06 02:37:40;;;;;;;;;;;;;;;21.00;38.96;102044.90;104607;1309;76732;-82
2022/10/06 02:40:06;;;;;;;;;;;;;;;20.99;38.96;102044.40;104555;1309;61992;-83
2022/10/06 02:42:34;;;;;;;;;;;;;;;20.99;38.91;102048.14;104537;1309;61996;-86
2022/10/06 02:44:59;;;;;;;;;;;;;;;20.99;38.94;102046.73;104537;1309;72842;-86
2022/10/06 02:47:31;;;;;;;;;;;;;;;20.99;39.04;102045.86;104521;1308;75858;-85
2022/10/06 02:49:58;;;;;;;;;;;;;;;20.99;38.97;102044.04;104523;1309;62127;-84
2022/10/06 02:52:29;;;;;;;;;;;;;;;20.99;38.98;102046.20;104639;1307;61995;-83
2022/10/06 02:54:57;;;;;;;;;;;;;;;20.98;38.99;102045.52;104510;1309;72738;-86
2022/10/06 02:57:25;;;;;;;;;;;;;;;20.98;38.94;102044.80;104483;1308;62090;-86
2022/10/06 02:59:50;;;;;;;;;;;;;;;20.98;38.87;102042.30;104499;1309;62111;-85
2022/10/06 03:02:16;;;;;;;;;;;;;;;20.98;39.05;102038.71;104636;1307;62084;-83
2022/10/06 03:05:05;;;;;;;;;;;;;;;20.98;38.86;102039.97;104638;1309;62067;-83
2022/10/06 03:07:30;;;;;;;;;;;;;;;20.98;38.75;102040.50;104201;1314;76851;-84
2022/10/06 03:09:56;;;;;;;;;;;;;;;20.98;38.98;102041.24;104135;1314;62139;-83
2022/10/06 03:12:22;;;;;;;;;;;;;;;20.98;38.93;102040.35;104203;1316;62357;-86
2022/10/06 03:14:48;;;;;;;;;;;;;;;20.98;38.84;102038.38;104217;1314;62030;-84
2022/10/06 03:17:13;;;;;;;;;;;;;;;20.98;38.91;102038.74;104167;1314;62224;-83
2022/10/06 03:19:39;;;;;;;;;;;;;;;20.97;38.98;102040.90;104180;1314;62148;-83
2022/10/06 03:22:07;;;;;;;;;;;;;;;20.98;38.94;102042.85;104125;1314;62086;-81
2022/10/06 03:24:35;;;;;;;;;;;;;;;20.97;38.99;102044.14;104155;1314;62227;-83
2022/10/06 03:27:03;;;;;;;;;;;;;;;20.97;39.02;102042.89;104108;1314;73948;-83
2022/10/06 03:29:29;;;;;;;;;;;;;;;20.97;39.06;102040.77;104085;1315;62376;-85
2022/10/06 03:32:00;;;;;;;;;;;;;;;20.97;38.96;102042.02;104114;1314;61006;-84
2022/10/06 03:34:26;;;;;;;;;;;;;;;20.97;38.67;102042.74;104110;1316;62247;-83
2022/10/06 03:36:52;;;;;;;;;;;;;;;20.97;38.85;102040.60;104122;1315;62304;-84
2022/10/06 03:39:20;;;;;;;;;;;;;;;20.97;38.81;102042.58;104107;1314;62215;-83
2022/10/06 03:41:49;;;;;;;;;;;;;;;20.96;38.75;102045.80;104244;1314;62242;-83
2022/10/06 03:44:15;;;;;;;;;;;;;;;20.96;39.00;102051.53;104196;1309;62062;-83
2022/10/06 03:46:41;;;;;;;;;;;;;;;20.95;38.75;102047.30;104582;1309;62228;-80
2022/10/06 03:49:06;;;;;;;;;;;;;;;20.94;38.88;102043.94;104545;1309;62832;-84
2022/10/06 03:51:40;;;;;;;;;;;;;;;20.93;39.07;102041.85;104747;1309;62270;-83
2022/10/06 03:54:09;;;;;;;;;;;;;;;20.92;38.67;102042.42;104540;1309;61935;-83
2022/10/06 03:56:36;;;;;;;;;;;;;;;20.91;38.74;102043.02;104515;1309;73636;-83
2022/10/06 03:59:03;;;;;;;;;;;;;;;20.90;38.76;102039.13;104629;1309;74276;-83
2022/10/06 04:01:32;;;;;;;;;;;;;;;20.90;38.92;102041.59;104481;1309;62050;-83
2022/10/06 04:03:58;;;;;;;;;;;;;;;20.88;38.60;102037.21;104466;1309;62011;-84
2022/10/06 04:06:28;;;;;;;;;;;;;;;20.87;38.78;102037.66;104465;1309;62056;-84
2022/10/06 04:08:57;;;;;;;;;;;;;;;20.86;38.70;102033.06;104565;1308;75544;-83
2022/10/06 04:11:24;;;;;;;;;;;;;;;20.85;38.58;102029.38;104581;1309;62174;-85
2022/10/06 04:13:54;;;;;;;;;;;;;;;20.84;38.69;102029.05;104568;1309;62077;-83
2022/10/06 04:16:21;;;;;;;;;;;;;;;20.83;38.75;102029.29;104523;1309;73727;-84
2022/10/06 04:18:50;;;;;;;;;;;;;;;20.82;38.74;102029.33;104520;1308;76577;-84
2022/10/06 04:21:19;;;;;;;;;;;;;;;20.81;38.61;102028.17;104648;1309;62098;-84
2022/10/06 04:23:45;;;;;;;;;;;;;;;20.78;38.55;102029.35;104539;1309;62114;-84
2022/10/06 04:26:13;;;;;;;;;;;;;;;20.76;38.63;102029.63;104526;1309;62116;-84
2022/10/06 04:28:39;;;;;;;;;;;;;;;20.74;38.87;102030.27;104377;1309;75774;-82
2022/10/06 04:31:06;;;;;;;;;;;;;;;20.72;38.66;102032.71;104406;1311;62071;-82
2022/10/06 04:33:33;;;;;;;;;;;;;;;20.70;38.75;102032.80;104283;1311;62056;-83
2022/10/06 04:35:59;;;;;;;;;;;;;;;20.68;38.55;102032.35;104455;1308;62232;-84
2022/10/06 04:38:26;;;;;;;;;;;;;;;20.67;38.77;102029.00;104345;1311;61990;-82
2022/10/06 04:40:51;;;;;;;;;;;;;;;20.65;38.84;102031.42;104420;1308;62065;-83
2022/10/06 04:43:17;;;;;;;;;;;;;;;20.64;38.85;102032.39;104401;1309;62074;-80
2022/10/06 04:45:42;;;;;;;;;;;;;;;20.62;38.88;102038.20;104323;1308;63236;-85
2022/10/06 04:48:08;;;;;;;;;;;;;;;20.59;38.83;102036.36;104238;1310;60046;-83
2022/10/06 04:50:34;;;;;;;;;;;;;;;20.58;38.88;102037.66;104279;1309;60529;-84
2022/10/06 04:52:59;;;;;;;;;;;;;;;20.57;38.89;102034.30;104335;1308;61968;-83
2022/10/06 04:55:25;;;;;;;;;;;;;;;20.55;38.87;102034.40;104361;1308;62073;-83
2022/10/06 04:57:50;;;;;;;;;;;;;;;20.52;38.95;102038.13;104209;1310;62355;-84
2022/10/06 05:00:23;;;;;;;;;;;;;;;20.46;38.94;102036.98;104306;1308;60861;-83
2022/10/06 05:02:48;;;;;;;;;;;;;;;20.42;38.94;102037.17;104880;1308;61177;-84
2022/10/06 05:05:14;;;;;;;;;;;;;;;20.38;39.20;102038.78;104409;1308;61157;-83
2022/10/06 05:07:42;;;;;;;;;;;;;;;20.37;39.16;102037.26;104288;1308;61994;-83
2022/10/06 05:10:07;;;;;;;;;;;;;;;20.37;39.31;102035.66;104340;1308;62124;-83
2022/10/06 05:12:33;;;;;;;;;;;;;;;20.38;39.32;102039.35;104440;1308;60373;-83
2022/10/06 05:14:58;;;;;;;;;;;;;;;20.40;39.16;102039.78;104252;1310;62012;-83
2022/10/06 05:17:24;;;;;;;;;;;;;;;20.42;39.44;102045.42;104220;1311;63055;-85
2022/10/06 05:19:49;;;;;;;;;;;;;;;20.43;39.07;102044.64;104285;1309;73058;-83
2022/10/06 05:22:15;;;;;;;;;;;;;;;20.44;39.26;102044.06;104293;1309;62060;-85
2022/10/06 05:24:40;;;;;;;;;;;;;;;20.45;39.31;102049.77;104334;1308;62118;-84
2022/10/06 05:27:06;;;;;;;;;;;;;;;20.46;39.46;102051.13;104293;1309;60563;-84
2022/10/06 05:29:32;;;;;;;;;;;;;;;20.46;39.31;102052.36;104385;1309;62118;-81
2022/10/06 05:31:58;;;;;;;;;;;;;;;20.47;39.11;102058.06;104220;1308;73253;-84
2022/10/06 05:34:23;;;;;;;;;;;;;;;20.47;39.20;102058.41;104440;1308;62053;-82
2022/10/06 05:36:49;;;;;;;;;;;;;;;20.47;39.21;102060.20;104241;1308;62779;-83
2022/10/06 05:39:14;;;;;;;;;;;;;;;20.48;39.15;102057.12;104329;1308;60876;-88
2022/10/06 05:41:40;;;;;;;;;;;;;;;20.48;39.10;102058.20;104438;1309;62082;-81
2022/10/06 05:44:06;;;;;;;;;;;;;;;20.48;39.03;102060.34;104247;1309;62130;-83
2022/10/06 05:46:32;;;;;;;;;;;;;;;20.48;39.27;102060.52;104532;1306;60516;-83
2022/10/06 05:48:58;;;;;;;;;;;;;;;20.47;39.00;102061.09;104207;1309;60356;-82
2022/10/06 05:51:25;;;;;;;;;;;;;;;20.47;39.18;102063.06;104765;1307;60441;-81
2022/10/06 05:53:50;;;;;;;;;;;;;;;20.45;39.15;102065.66;104285;1309;60631;-82
2022/10/06 05:56:17;;;;;;;;;;;;;;;20.36;38.91;102064.30;104274;1309;61464;-83
2022/10/06 05:58:43;;;;;;;;;;;;;;;20.29;39.20;102062.49;104461;1307;62078;-82
2022/10/06 06:01:15;;;;;;;;;;;;;;;20.23;39.13;102063.48;104666;1309;60817;-82
2022/10/06 06:03:41;;;;;;;;;;;;;;;20.19;39.23;102063.49;104383;1308;74340;-82
2022/10/06 06:06:14;;;;;;;;;;;;;;;20.15;39.27;102059.94;104251;1309;62702;-82
2022/10/06 06:08:40;;;;;;;;;;;;;;;20.15;39.25;102062.64;104275;1309;62084;-82
2022/10/06 06:11:06;;;;;;;;;;;;;;;20.16;39.41;102066.14;104281;1308;62276;-82
2022/10/06 06:13:32;;;;;;;;;;;;;;;20.18;39.20;102070.69;104407;1308;60352;-79
2022/10/06 06:16:03;;;;;;;;;;;;;;;20.17;39.39;102072.55;104319;1309;62102;-83
2022/10/06 06:18:30;;;;;;;;;;;;;;;20.20;39.33;102079.03;104322;1308;62095;-82
2022/10/06 06:20:59;;;;;;;;;;;;;;;20.24;39.28;102076.31;104671;1309;61984;-81
2022/10/06 06:23:30;;;;;;;;;;;;;;;20.29;39.57;102078.61;104240;1309;73916;-83
2022/10/06 06:25:59;;;;;;;;;;;;;;;20.33;39.49;102077.14;104273;1309;75498;-83
2022/10/06 06:28:25;;;;;;;;;;;;;;;20.37;39.39;102078.02;104368;1309;62669;-82
2022/10/06 06:30:57;;;;;;;;;;;;;;;20.39;39.23;102079.02;104295;1309;61986;-82
2022/10/06 06:33:23;;;;;;;;;;;;;;;20.41;39.37;102077.30;104294;1309;72904;-82
2022/10/06 06:35:49;;;;;;;;;;;;;;;20.42;39.50;102077.26;104395;1308;62249;-81
2022/10/06 06:38:15;;;;;;;;;;;;;;;20.42;39.33;102081.31;104230;1308;62092;-82
2022/10/06 06:40:40;;;;;;;;;;;;;;;20.43;39.45;102083.11;104294;1309;60444;-83
2022/10/06 06:43:07;;;;;;;;;;;;;;;20.43;39.46;102085.59;104350;1308;62106;-83
2022/10/06 06:45:32;;;;;;;;;;;;;;;20.44;39.49;102085.74;104367;1308;61947;-83
2022/10/06 06:47:57;;;;;;;;;;;;;;;20.46;39.65;102087.28;104184;1309;62127;-82
2022/10/06 06:50:23;;;;;;;;;;;;;;;20.47;39.54;102086.15;104064;1309;62192;-83
2022/10/06 06:52:49;;;;;;;;;;;;;;;20.47;39.45;102090.97;103764;1309;62080;-83
2022/10/06 06:55:14;;;;;;;;;;;;;;;20.41;39.46;102094.66;103858;1308;65317;-82
2022/10/06 06:57:41;;;;;;;;;;;;;;;20.35;39.62;102093.33;104369;1308;61042;-82
2022/10/06 07:00:07;;;;;;;;;;;;;;;20.34;39.61;102099.63;104363;1308;61916;-83
2022/10/06 07:02:33;;;;;;;;;;;;;;;20.36;39.68;102099.89;104199;1308;62120;-83
2022/10/06 07:04:59;;;;;;;;;;;;;;;20.30;39.62;102099.80;104267;1307;60900;-82
2022/10/06 07:07:24;;;;;;;;;;;;;;;20.23;39.54;102096.35;104430;1308;61286;-82
2022/10/06 07:10:13;;;;;;;;;;;;;;;20.25;39.89;102102.02;104240;1308;62340;-84
2022/10/06 07:12:39;;;;;;;;;;;;;;;20.29;40.01;102099.69;103760;1315;61970;-81
2022/10/06 07:26:03;;;;;;;;;;;;;;;20.39;39.78;102097.61;103799;1315;61982;-85
2022/10/06 07:28:29;;;;;;;;;;;;;;;20.41;39.83;102097.86;103626;1317;73810;-85
2022/10/06 07:30:55;;;;;;;;;;;;;;;20.43;39.70;102098.11;103906;1316;62548;-82
2022/10/06 07:33:21;;;;;;;;;;;;;;;20.44;39.68;102096.63;103910;1314;62175;-84
2022/10/06 07:35:46;;;;;;;;;;;;;;;20.46;39.76;102096.75;103668;1316;62444;-82
2022/10/06 07:38:12;;;;;;;;;;;;;;;20.47;39.69;102094.90;103795;1316;62307;-82
2022/10/06 07:40:37;;;;;;;;;;;;;;;20.48;39.62;102098.44;103912;1316;62204;-83
2022/10/06 07:43:03;;;;;;;;;;;;;;;20.49;39.63;102098.73;103760;1317;73517;-85
2022/10/06 07:45:37;;;;;;;;;;;;;;;20.50;39.69;102094.23;103881;1316;59696;-84
2022/10/06 07:48:06;;;;;;;;;;;;;;;20.51;39.51;102097.40;103690;1316;61998;-84
2022/10/06 07:50:32;;;;;;;;;;;;;;;20.51;39.68;102097.94;104034;1311;72855;-83
2022/10/06 07:53:06;;;;;;;;;;;;;;;20.51;39.54;102097.91;104225;1309;62257;-85
2022/10/06 07:55:32;;;;;;;;;;;;;;;20.51;39.56;102097.55;104256;1309;61174;-83
2022/10/06 07:57:57;;;;;;;;;;;;;;;20.51;39.32;102099.70;104301;1308;62254;-83
2022/10/06 08:00:25;;;;;;;;;;;;;;;20.51;39.43;102094.86;104193;1309;62067;-84
2022/10/06 08:02:53;;;;;;;;;;;;;;;20.51;39.34;102096.30;104805;1308;60528;-83
2022/10/06 08:05:19;;;;;;;;;;;;;;;20.50;39.32;102093.11;104371;1308;62112;-82
2022/10/06 08:07:45;;;;;;;;;;;;;;;20.49;39.42;102092.98;104266;1308;62088;-82
2022/10/06 08:10:11;;;;;;;;;;;;;;;20.49;39.71;102089.23;104354;1307;61392;-82
2022/10/06 08:12:38;;;;;;;;;;;;;;;20.50;39.75;102086.50;104216;1308;62075;-83
2022/10/06 08:15:05;;;;;;;;;;;;;;;20.51;39.69;102087.56;104229;1309;59522;-83
2022/10/06 08:17:31;;;;;;;;;;;;;;;20.51;39.75;102087.01;104243;1308;62123;-82
2022/10/06 08:20:20;;;;;;;;;;;;;;;20.53;39.70;102087.61;104365;1309;62129;-83
2022/10/06 08:22:46;;;;;;;;;;;;;;;20.55;39.54;102086.98;103927;1314;74618;-82
2022/10/06 08:25:12;;;;;;;;;;;;;;;20.58;39.70;102086.11;103892;1314;62121;-83
2022/10/06 08:27:39;;;;;;;;;;;;;;;20.60;39.57;102081.56;103949;1314;62992;-83
2022/10/06 08:30:05;;;;;;;;;;;;;;;20.62;39.76;102079.14;103914;1314;62462;-84
2022/10/06 08:32:31;;;;;;;;;;;;;;;20.64;39.81;102079.92;103921;1314;62115;-84
2022/10/06 08:34:57;;;;;;;;;;;;;;;20.66;39.60;102075.54;103972;1312;62670;-83
2022/10/06 08:37:22;;;;;;;;;;;;;;;20.67;39.69;102072.45;103928;1315;62099;-82
2022/10/06 08:39:51;;;;;;;;;;;;;;;20.68;39.54;102070.63;103877;1314;62088;-82
2022/10/06 08:42:22;;;;;;;;;;;;;;;20.68;39.77;102065.96;103918;1314;62363;-83
2022/10/06 08:44:49;;;;;;;;;;;;;;;20.69;39.62;102065.41;103985;1314;62051;-83
2022/10/06 08:47:18;;;;;;;;;;;;;;;20.70;39.57;102064.10;103959;1314;62117;-81
2022/10/06 08:49:45;;;;;;;;;;;;;;;20.71;39.58;102059.57;103783;1317;73049;-82
2022/10/06 08:52:13;;;;;;;;;;;;;;;20.71;39.63;102059.74;104036;1314;77716;-83
2022/10/06 08:54:45;;;;;;;;;;;;;;;20.72;39.49;102061.52;103937;1314;62015;-83
2022/10/06 08:57:17;;;;;;;;;;;;;;;20.72;39.40;102059.54;103962;1315;62051;-81
2022/10/06 08:59:43;;;;;;;;;;;;;;;20.71;39.38;102059.92;103951;1308;73579;-83
2022/10/06 09:02:28;;;;;;;;;;;;;;;20.72;39.57;102065.27;104426;1308;75795;-83
2022/10/06 09:04:55;;;;;;;;;;;;;;;20.71;39.36;102065.31;104199;1309;61996;-82
2022/10/06 09:07:31;;;;;;;;;;;;;;;20.70;39.54;102069.11;104457;1309;62117;-81
2022/10/06 09:09:57;;;;;;;;;;;;;;;20.68;39.52;102070.27;104189;1308;71765;-81
2022/10/06 09:12:34;;;;;;;;;;;;;;;20.68;39.63;102063.48;104306;1308;62076;-82
2022/10/06 09:15:08;;;;;;;;;;;;;;;20.68;39.55;102065.79;104440;1307;61765;-82
2022/10/06 09:17:36;;;;;;;;;;;;;;;20.68;39.73;102063.64;104512;1307;62174;-84
2022/10/06 09:20:02;;;;;;;;;;;;;;;20.69;39.71;102063.59;104474;1308;74223;-83
2022/10/06 09:22:29;;;;;;;;;;;;;;;20.72;39.80;102058.30;105244;1308;60458;-82
2022/10/06 09:24:56;;;;;;;;;;;;;;;20.73;39.60;102055.89;104998;1309;60241;-83
2022/10/06 09:27:23;;;;;;;;;;;;;;;20.75;39.82;102052.23;104648;1308;60224;-83
2022/10/06 09:29:50;;;;;;;;;;;;;;;20.77;39.98;102044.81;103914;1307;72638;-82
2022/10/06 09:32:16;;;;;;;;;;;;;;;20.78;39.84;102033.48;104347;1309;75887;-82
2022/10/06 09:34:51;;;;;;;;;;;;;;;20.79;39.76;102033.07;104427;1307;60640;-83
2022/10/06 09:37:17;;;;;;;;;;;;;;;20.80;39.77;102030.55;104253;1310;61197;-84
2022/10/06 09:39:44;;;;;;;;;;;;;;;20.80;39.77;102029.63;104287;1308;62072;-82
2022/10/06 09:42:09;;;;;;;;;;;;;;;20.80;39.73;102032.33;104498;1309;60250;-82
2022/10/06 09:44:43;;;;;;;;;;;;;;;20.79;39.65;102021.99;104326;1308;62308;-84
2022/10/06 09:47:27;;;;;;;;;;;;;;;20.79;39.44;102015.92;104446;1307;62514;-83
2022/10/06 09:50:10;;;;;;;;;;;;;;;20.78;39.45;102015.79;104271;1306;72779;-80
2022/10/06 09:52:37;;;;;;;;;;;;;;;20.76;39.47;102009.44;104273;1309;77058;-82
2022/10/06 09:55:13;;;;;;;;;;;;;;;20.74;39.24;102011.30;103987;1308;62039;-83
2022/10/06 09:57:46;;;;;;;;;;;;;;;20.74;39.38;102010.58;104166;1309;60912;-85
2022/10/06 10:00:34;;;;;;;;;;;;;;;20.77;39.43;102008.82;103886;1311;599044;-83
2022/10/06 10:03:01;;;;;;;;;;;;;;;20.73;39.18;102009.02;105070;1309;72823;-83
2022/10/06 10:05:30;;;;;;;;;;;;;;;20.69;39.21;102007.62;105039;1309;60204;-83
2022/10/06 10:08:02;;;;;;;;;;;;;;;20.66;39.23;102008.10;105153;1309;60374;-83
2022/10/06 10:10:27;;;;;;;;;;;;;;;20.66;39.22;102006.13;105179;1309;72790;-82
2022/10/06 10:12:53;;;;;;;;;;;;;;;20.67;39.32;102008.42;104883;1309;403652;-82
2022/10/06 10:15:19;;;;;;;;;;;;;;;20.67;39.26;102006.08;105354;1308;57668;-83
2022/10/06 10:17:50;;;;;;;;;;;;;;;20.67;39.35;101996.78;104466;1308;59333;-83
2022/10/06 10:20:19;;;;;;;;;;;;;;;20.69;39.21;101995.83;104358;1309;72871;-83
2022/10/06 10:22:44;;;;;;;;;;;;;;;20.71;39.37;101991.45;104434;1308;72688;-83
2022/10/06 10:25:28;;;;;;;;;;;;;;;20.72;39.24;101989.94;104403;1309;59289;-83
2022/10/06 10:28:03;;;;;;;;;;;;;;;20.73;39.13;101978.98;104482;1308;60825;-84
2022/10/06 10:30:30;;;;;;;;;;;;;;;20.72;39.16;101981.71;104457;1309;72819;-84
2022/10/06 10:32:59;;;;;;;;;;;;;;;20.72;39.32;101979.74;104409;1309;74301;-81
2022/10/06 10:35:31;;;;;;;;;;;;;;;20.71;39.35;101976.39;104385;1308;60135;-82
2022/10/06 10:37:57;;;;;;;;;;;;;;;20.71;39.11;101975.34;104471;1309;60127;-83
2022/10/06 10:40:26;;;;;;;;;;;;;;;20.71;39.16;101964.77;104432;1309;59700;-87
2022/10/06 10:43:09;;;;;;;;;;;;;;;20.69;39.07;101962.92;104456;1309;72906;-83
2022/10/06 10:45:35;;;;;;;;;;;;;;;20.68;39.11;101955.95;104532;1308;60252;-86
2022/10/06 10:48:04;;;;;;;;;;;;;;;20.70;39.20;101956.27;104357;1309;59691;-83
2022/10/06 10:50:53;;;;;;;;;;;;;;;20.70;39.17;101955.19;104402;1309;73014;-83
2022/10/06 10:53:39;;;;;;;;;;;;;;;20.68;39.07;101951.50;104231;1309;73175;-85
2022/10/06 10:56:34;;;;;;;;;;;;;;;20.66;38.88;101950.01;104402;1309;60237;-85
2022/10/06 10:59:05;;;;;;;;;;;;;;;20.63;38.93;101953.34;103795;1315;61377;-83
2022/10/06 11:01:38;;;;;;;;;;;;;;;20.65;38.92;101950.22;103659;1316;73145;-84
2022/10/06 11:04:07;;;;;;;;;;;;;;;20.65;38.97;101945.72;103914;1315;73536;-85
2022/10/06 11:06:38;;;;;;;;;;;;;;;20.66;39.00;101945.14;103828;1316;61193;-83
2022/10/06 11:09:12;;;;;;;;;;;;;;;20.66;38.95;101941.91;104135;1315;60576;-83
2022/10/06 11:11:44;;;;;;;;;;;;;;;20.67;38.81;101940.97;103762;1315;72559;-83
2022/10/06 11:14:19;;;;;;;;;;;;;;;20.68;38.78;101940.58;104113;1314;73431;-83
2022/10/06 11:16:47;;;;;;;;;;;;;;;20.68;38.95;101937.00;104121;1315;60207;-83
2022/10/06 11:19:33;;;;;;;;;;;;;;;20.68;38.94;101931.48;104267;1312;60370;-84
2022/10/06 11:21:59;;;;;;;;;;;;;;;20.70;38.90;101927.95;104236;1312;73960;-83
2022/10/06 11:24:30;;;;;;;;;;;;;;;20.72;38.90;101925.74;104178;1312;59743;-84
2022/10/06 11:27:01;;;;;;;;;;;;;;;20.74;38.94;101917.91;104171;1312;60783;-82
2022/10/06 11:29:39;;;;;;;;;;;;;;;20.76;39.15;101915.33;104085;1313;61446;-87
2022/10/06 11:32:05;;;;;;;;;;;;;;;20.78;39.04;101914.52;104030;1312;74104;-85
2022/10/06 11:34:31;;;;;;;;;;;;;;;20.78;39.12;101912.70;103850;1312;59819;-83
2022/10/06 11:37:05;;;;;;;;;;;;;;;20.78;39.10;101911.63;104122;1306;59715;-85
2022/10/06 11:39:34;;;;;;;;;;;;;;;20.79;38.99;101907.48;104565;1306;59803;-88
2022/10/06 11:42:06;;;;;;;;;;;;;;;20.80;39.19;101915.48;104434;1306;72587;-85
2022/10/06 11:44:33;;;;;;;;;;;;;;;20.80;39.15;101909.55;104414;1306;72452;-85
2022/10/06 11:47:05;;;;;;;;;;;;;;;20.81;39.18;101912.02;104084;1306;61096;-84
2022/10/06 11:49:31;;;;;;;;;;;;;;;20.81;38.86;101909.52;105493;1306;61515;-84
2022/10/06 11:52:17;;;;;;;;;;;;;;;20.81;38.81;101904.86;105421;1306;57874;-84
2022/10/06 11:54:45;;;;;;;;;;;;;;;20.82;38.72;101909.83;105460;1306;72343;-83
2022/10/06 11:57:23;;;;;;;;;;;;;;;20.85;38.92;101904.30;105437;1306;61153;-82
2022/10/06 11:59:55;;;;;;;;;;;;;;;20.87;39.02;101900.95;104689;1305;60529;-83
2022/10/06 12:02:39;;;;;;;;;;;;;;;20.90;38.93;101894.58;104635;1306;72942;-83
2022/10/06 12:05:13;;;;;;;;;;;;;;;20.90;39.09;101893.08;104528;1306;74532;-84
2022/10/06 12:08:11;;;;;;;;;;;;;;;20.92;39.12;101900.70;104652;1305;60600;-83
2022/10/06 12:10:46;;;;;;;;;;;;;;;20.93;39.24;101898.33;104233;1312;60588;-82
2022/10/06 12:13:20;;;;;;;;;;;;;;;20.94;39.21;101899.36;104135;1312;73778;-83
2022/10/06 12:15:51;;;;;;;;;;;;;;;20.93;39.17;101897.21;104219;1312;73277;-84
2022/10/06 12:18:39;;;;;;;;;;;;;;;20.92;39.26;101898.88;104215;1312;60152;-82
2022/10/06 12:21:13;;;;;;;;;;;;;;;20.93;39.00;101904.41;103654;1318;60019;-83
2022/10/06 12:23:40;;;;;;;;;;;;;;;20.92;39.05;101900.15;103716;1318;72940;-84
2022/10/06 12:26:05;;;;;;;;;;;;;;;20.91;38.79;101898.98;103579;1318;60125;-86
2022/10/06 12:28:32;;;;;;;;;;;;;;;20.90;38.85;101894.89;103663;1318;59843;-85
2022/10/06 12:31:18;;;;;;;;;;;;;;;20.91;38.96;101889.66;103553;1319;59638;-84
2022/10/06 12:33:44;;;;;;;;;;;;;;;20.91;38.78;101890.02;103783;1318;73332;-85
2022/10/06 12:36:19;;;;;;;;;;;;;;;20.92;38.85;101889.98;103566;1319;60899;-85
2022/10/06 12:39:03;;;;;;;;;;;;;;;20.90;38.66;101888.59;103425;1319;61158;-84
2022/10/06 12:41:49;;;;;;;;;;;;;;;20.90;38.85;101884.05;103628;1317;61855;-82
2022/10/06 12:44:20;;;;;;;;;;;;;;;20.90;38.95;101877.34;103564;1319;72989;-83
2022/10/06 12:46:46;;;;;;;;;;;;;;;20.91;38.96;101880.70;103551;1313;75126;-81